Terminal Aerodrome Forecast
Issued by NWS Goodland, KS

Home | Current Version | Previous Version | Text Only | Print | Product List | Glossary On
Versions: 1 2 3 4 5 6 7 8 9 10 11 12 13 14 15 16
000
FTUS43 KGLD 241120
TAFGLD
TAF
KGLD 241120Z 2412/2512 25010KT P6SM SCT220
     FM241700 31007KT P6SM FEW220
     FM242100 VRB04KT P6SM SKC
     FM250200 16005KT P6SM SKC
     FM250700 21006KT P6SM SKC
     FM251100 27006KT P6SM SKC=

USA.gov is the U.S. government's official web portal to all federal, state and local government web resources and services.